Time;durP1;ratioP1;P1;durP2;ratioP2;P2;SDS_P1;SDS_P2;PMS_P1;PMS_P2;Temp;Humidity;BMP_temperature;BMP_pressure;BME280_temperature;BME280_humidity;BME280_pressure;Samples;Min_cycle;Max_cycle;Signal;HPM_P1;HPM_P2
2023/03/31 00:01:51;;;;;;;6.35;2.05;;;10.80;99.90;;;;;;6222266;23;20605;-83
2023/03/31 00:04:17;;;;;;;4.72;1.98;;;10.60;99.90;;;;;;6220914;23;20187;-82
2023/03/31 00:06:42;;;;;;;5.97;2.60;;;10.40;99.90;;;;;;6220588;23;20153;-85
2023/03/31 00:09:14;;;;;;;8.37;1.37;;;10.40;99.90;;;;;;6222206;23;20175;-85
2023/03/31 00:11:40;;;;;;;5.95;1.60;;;10.40;99.90;;;;;;6219822;23;20247;-81
2023/03/31 00:14:06;;;;;;;5.53;1.80;;;10.40;99.90;;;;;;6247301;23;20160;-85
2023/03/31 00:16:33;;;;;;;3.28;1.30;;;10.40;99.90;;;;;;6249286;23;20137;-83
2023/03/31 00:19:00;;;;;;;17.88;1.90;;;10.50;99.90;;;;;;6222139;23;20156;-82
2023/03/31 00:21:33;;;;;;;11.90;2.58;;;10.40;99.90;;;;;;6249923;22;20603;-82
2023/03/31 00:24:01;;;;;;;2.42;1.10;;;10.40;99.90;;;;;;6221788;23;20173;-84
2023/03/31 00:26:27;;;;;;;6.50;1.50;;;10.40;99.90;;;;;;6251179;23;20145;-80
2023/03/31 00:28:53;;;;;;;3.55;1.38;;;10.50;99.90;;;;;;6251046;23;20129;-85
2023/03/31 00:31:19;;;;;;;10.90;1.70;;;10.60;99.90;;;;;;6222115;22;20182;-82
2023/03/31 00:33:45;;;;;;;9.25;1.60;;;10.60;99.90;;;;;;6246500;22;20403;-80
2023/03/31 00:36:12;;;;;;;3.43;1.60;;;12.80;99.90;;;;;;6217985;23;20161;-77
2023/03/31 00:38:37;;;;;;;5.90;1.55;;;10.70;99.90;;;;;;6246937;23;20617;-81
2023/03/31 00:41:05;;;;;;;3.47;1.73;;;10.70;99.90;;;;;;6247886;23;20144;-83
2023/03/31 00:43:37;;;;;;;3.30;1.27;;;10.80;99.90;;;;;;6248014;22;20686;-82
2023/03/31 00:46:21;;;;;;;8.57;1.67;;;10.90;99.90;;;;;;6220095;23;20677;-84
2023/03/31 00:48:50;;;;;;;13.57;2.10;;;10.90;99.90;;;;;;6219913;23;20148;-83
2023/03/31 00:51:18;;;;;;;3.78;1.35;;;10.90;99.90;;;;;;6218003;22;20248;-80
2023/03/31 00:53:50;;;;;;;2.55;1.42;;;10.90;99.90;;;;;;6215201;23;20164;-83
2023/03/31 00:56:16;;;;;;;3.80;1.58;;;10.90;99.90;;;;;;6245390;23;20141;-82
2023/03/31 00:58:43;;;;;;;11.13;1.33;;;10.80;99.90;;;;;;6247741;23;20673;-83
2023/03/31 01:01:15;;;;;;;3.10;1.35;;;10.80;99.90;;;;;;6211636;23;20378;-81
2023/03/31 01:03:44;;;;;;;4.68;1.50;;;10.60;99.90;;;;;;6241736;23;20888;-83
2023/03/31 01:06:10;;;;;;;6.05;1.55;;;10.50;99.90;;;;;;6243879;23;20136;-83
2023/03/31 01:08:38;;;;;;;6.57;1.98;;;10.40;99.90;;;;;;6216821;23;20216;-82
2023/03/31 01:11:06;;;;;;;4.18;1.50;;;10.40;99.90;;;;;;6243008;23;20174;-83
2023/03/31 01:13:35;;;;;;;7.38;1.40;;;10.70;99.90;;;;;;6243674;22;20168;-83
2023/03/31 01:16:01;;;;;;;2.72;1.60;;;10.80;99.90;;;;;;6216476;23;20167;-81
2023/03/31 01:18:28;;;;;;;4.77;1.47;;;10.90;99.90;;;;;;6216277;23;20157;-80
2023/03/31 01:21:46;;;;;;;3.88;1.63;;;10.80;99.90;;;;;;6244289;23;20884;-82
2023/03/31 01:24:24;;;;;;;8.48;2.10;;;11.00;99.90;;;;;;6243744;23;20275;-81
2023/03/31 01:27:20;;;;;;;2.90;1.17;;;11.20;99.90;;;;;;6242753;23;20144;-83
2023/03/31 01:30:07;;;;;;;6.63;2.42;;;11.10;99.90;;;;;;6217114;23;20223;-80
2023/03/31 01:33:03;;;;;;;9.82;1.33;;;11.00;99.90;;;;;;6232496;22;20225;-82
2023/03/31 01:36:08;;;;;;;6.43;1.63;;;10.90;99.90;;;;;;6247371;22;20152;-82
2023/03/31 01:38:46;;;;;;;14.05;1.95;;;10.80;99.90;;;;;;6247685;22;20190;-81
2023/03/31 01:41:26;;;;;;;10.07;2.90;;;10.90;99.90;;;;;;6246195;22;20147;-80
2023/03/31 01:44:31;;;;;;;2.80;1.65;;;10.90;99.90;;;;;;6241363;22;20228;-81
2023/03/31 01:47:05;;;;;;;5.38;1.77;;;10.90;99.90;;;;;;6244869;22;20144;-82
2023/03/31 01:49:45;;;;;;;5.70;1.35;;;10.90;99.90;;;;;;6273019;22;20701;-83
2023/03/31 01:52:23;;;;;;;3.92;2.20;;;10.90;99.90;;;;;;6270902;22;20172;-81
2023/03/31 01:55:09;;;;;;;6.15;1.67;;;10.90;99.90;;;;;;6270409;22;20829;-80
2023/03/31 01:57:50;;;;;;;6.10;2.10;;;11.00;99.90;;;;;;6270803;22;20159;-82
2023/03/31 02:00:21;;;;;;;5.35;1.38;;;11.10;99.90;;;;;;6243808;22;20147;-84
2023/03/31 02:03:09;;;;;;;2.33;1.38;;;11.10;99.90;;;;;;6244829;22;20275;-84
2023/03/31 02:05:41;;;;;;;9.18;2.20;;;11.10;99.90;;;;;;6244737;22;20223;-80
2023/03/31 02:08:12;;;;;;;3.45;1.30;;;11.10;99.90;;;;;;6245172;22;20150;-83
2023/03/31 02:10:41;;;;;;;6.18;2.00;;;11.10;99.90;;;;;;6245888;22;20148;-79
2023/03/31 02:13:08;;;;;;;4.22;1.80;;;11.20;99.90;;;;;;6244287;22;20180;-85
2023/03/31 02:15:40;;;;;;;3.97;1.40;;;11.20;99.90;;;;;;6271099;22;20148;-83
2023/03/31 02:18:11;;;;;;;3.67;1.30;;;11.30;99.90;;;;;;6274384;22;20156;-84
2023/03/31 02:20:42;;;;;;;7.45;1.40;;;11.20;99.90;;;;;;6245039;22;20209;-81
2023/03/31 02:23:11;;;;;;;6.00;1.83;;;11.20;99.90;;;;;;6243632;22;20258;-83
2023/03/31 02:25:47;;;;;;;4.55;1.77;;;11.20;99.90;;;;;;6246997;22;20456;-82
2023/03/31 02:28:21;;;;;;;2.83;1.85;;;11.10;99.90;;;;;;6273582;22;20128;-83
2023/03/31 02:31:05;;;;;;;3.72;1.60;;;11.10;99.90;;;;;;6271896;22;20638;-83
2023/03/31 02:33:31;;;;;;;3.60;1.55;;;11.10;99.90;;;;;;6243381;22;20975;-82
2023/03/31 02:35:58;;;;;;;4.50;1.57;;;11.00;99.90;;;;;;6244317;22;20189;-82
2023/03/31 02:38:23;;;;;;;5.13;1.88;;;11.10;99.90;;;;;;6244413;22;20433;-82
2023/03/31 02:40:49;;;;;;;4.63;1.33;;;11.10;99.90;;;;;;6247379;22;20217;-84
2023/03/31 02:43:15;;;;;;;5.90;1.80;;;11.00;99.90;;;;;;6273423;22;20218;-83
2023/03/31 02:45:49;;;;;;;5.97;1.97;;;11.00;99.90;;;;;;6272582;22;20201;-81
2023/03/31 02:48:18;;;;;;;11.30;2.15;;;10.90;99.90;;;;;;6245158;22;20151;-83
2023/03/31 02:51:02;;;;;;;4.00;1.42;;;10.90;99.90;;;;;;6274043;22;20154;-80
2023/03/31 02:53:49;;;;;;;4.93;1.40;;;10.90;99.90;;;;;;6271683;22;20163;-82
2023/03/31 02:56:29;;;;;;;7.60;1.80;;;11.00;99.90;;;;;;6242876;22;20475;-79
2023/03/31 02:59:15;;;;;;;4.47;1.90;;;11.00;99.90;;;;;;6244831;22;20147;-80
2023/03/31 03:01:53;;;;;;;4.30;1.55;;;11.00;99.90;;;;;;6242260;22;20183;-80
2023/03/31 03:04:40;;;;;;;8.05;1.33;;;11.00;99.90;;;;;;6243839;22;20493;-79
2023/03/31 03:07:45;;;;;;;8.52;2.25;;;11.00;99.90;;;;;;6239417;22;20778;-80
2023/03/31 03:10:25;;;;;;;4.45;1.70;;;11.00;99.90;;;;;;6195062;22;20156;-80
2023/03/31 03:13:07;;;;;;;2.70;1.58;;;10.90;99.90;;;;;;6270637;22;20275;-82
2023/03/31 03:15:38;;;;;;;9.23;1.77;;;11.00;99.90;;;;;;6244660;22;20547;-81
2023/03/31 03:18:05;;;;;;;2.53;1.38;;;11.00;99.90;;;;;;6244356;22;20210;-82
2023/03/31 03:20:32;;;;;;;5.30;1.95;;;11.00;99.90;;;;;;6246279;22;20166;-83
2023/03/31 03:22:58;;;;;;;3.25;1.00;;;11.00;99.90;;;;;;6274823;22;20178;-82
2023/03/31 03:25:24;;;;;;;5.50;2.40;;;11.00;99.90;;;;;;6269899;22;21066;-82
2023/03/31 03:27:51;;;;;;;6.20;1.60;;;11.00;99.90;;;;;;6271692;22;20148;-81
2023/03/31 03:30:18;;;;;;;2.15;1.13;;;11.00;99.90;;;;;;6243426;22;20154;-81
2023/03/31 03:32:45;;;;;;;9.45;1.77;;;10.90;99.90;;;;;;6244567;22;20194;-81
2023/03/31 03:35:10;;;;;;;5.50;2.20;;;10.90;99.90;;;;;;6270543;22;20144;-81
2023/03/31 03:37:36;;;;;;;3.40;1.67;;;;;;;;;;6220798;22;20311;-87
2023/03/31 03:40:04;;;;;;;3.63;1.93;;;10.90;99.90;;;;;;6239982;23;20366;-86
2023/03/31 03:42:31;;;;;;;2.47;1.05;;;10.90;99.90;;;;;;6238770;23;20379;-87
2023/03/31 03:44:56;;;;;;;1.98;1.48;;;11.00;99.90;;;;;;6261109;22;20184;-86
2023/03/31 03:47:22;;;;;;;8.03;1.47;;;;;;;;;;6270579;22;20500;-86
2023/03/31 03:49:49;;;;;;;9.13;2.15;;;11.00;99.90;;;;;;6247017;22;20171;-86
2023/03/31 03:52:15;;;;;;;3.00;1.50;;;;;;;;;;6246614;22;20182;-87
2023/03/31 03:54:41;;;;;;;2.92;1.70;;;10.90;99.90;;;;;;6247571;22;20199;-87
2023/03/31 03:57:07;;;;;;;5.60;2.07;;;;;;;;;;6276199;22;20155;-87
2023/03/31 03:59:33;;;;;;;3.60;1.63;;;;;;;;;;6245757;22;20184;-86
2023/03/31 04:01:59;;;;;;;3.20;1.70;;;;;;;;;;6240750;22;20383;-87
2023/03/31 04:04:25;;;;;;;6.07;1.70;;;10.90;99.90;;;;;;6241606;22;20426;-86
2023/03/31 04:06:50;;;;;;;3.63;1.73;;;10.80;99.90;;;;;;6270349;22;20146;-87
2023/03/31 04:09:16;;;;;;;6.00;2.17;;;10.70;99.90;;;;;;6239244;22;20156;-86
2023/03/31 04:11:42;;;;;;;7.77;1.60;;;;;;;;;;6276218;22;20235;-86
2023/03/31 04:14:07;;;;;;;3.90;1.63;;;10.50;99.90;;;;;;6246779;22;20179;-87
2023/03/31 04:16:33;;;;;;;6.23;2.17;;;10.40;99.90;;;;;;6281020;22;20385;-87
2023/03/31 04:19:02;;;;;;;4.63;1.63;;;10.50;99.90;;;;;;6284824;22;20457;-88
2023/03/31 04:21:29;;;;;;;7.03;3.35;;;10.50;99.90;;;;;;6284045;22;20277;-87
2023/03/31 04:24:00;;;;;;;12.90;3.10;;;10.50;99.90;;;;;;6258533;22;20623;-87
2023/03/31 04:26:37;;;;;;;9.05;3.13;;;11.00;99.90;;;;;;6295867;22;20112;-86
2023/03/31 04:29:03;;;;;;;11.20;5.38;;;;;;;;;;6268061;22;20162;-85
2023/03/31 04:31:29;;;;;;;9.63;2.13;;;;;;;;;;6266484;22;20151;-85
2023/03/31 04:34:01;;;;;;;5.90;3.00;;;10.50;99.90;;;;;;6266591;22;20406;-86
2023/03/31 04:36:30;;;;;;;4.45;1.90;;;10.50;99.90;;;;;;6256431;22;20804;-84
2023/03/31 04:39:09;;;;;;;10.20;2.83;;;10.60;99.90;;;;;;6248210;22;20670;-87
2023/03/31 04:41:36;;;;;;;4.32;2.50;;;;;;;;;;6252309;22;20140;-86
2023/03/31 04:44:01;;;;;;;8.68;2.45;;;10.60;99.90;;;;;;6279945;22;20540;-88
2023/03/31 04:46:27;;;;;;;3.30;1.97;;;10.60;99.90;;;;;;6279422;22;20144;-85
2023/03/31 04:48:53;;;;;;;4.00;2.50;;;;;;;;;;6249507;22;21130;-88
2023/03/31 04:51:19;;;;;;;4.20;2.67;;;10.80;99.90;;;;;;6252408;22;20564;-87
2023/03/31 04:53:45;;;;;;;8.93;3.10;;;10.90;99.90;;;;;;6280937;22;20398;-83
2023/03/31 04:56:11;;;;;;;7.78;3.35;;;10.80;99.90;;;;;;6250697;22;20160;-86
2023/03/31 04:58:37;;;;;;;7.37;2.60;;;10.80;99.90;;;;;;6278160;22;20873;-87
2023/03/31 05:01:06;;;;;;;7.75;2.47;;;10.90;99.90;;;;;;6250117;22;21104;-86
2023/03/31 05:03:32;;;;;;;4.13;2.83;;;10.80;99.90;;;;;;6255363;22;20180;-87
2023/03/31 05:05:58;;;;;;;8.20;3.30;;;10.80;99.90;;;;;;6280079;22;20605;-86
2023/03/31 05:08:23;;;;;;;3.80;2.23;;;10.80;99.90;;;;;;6255531;22;20172;-86
2023/03/31 05:10:49;;;;;;;4.70;2.60;;;10.70;99.90;;;;;;6279941;22;20179;-86
2023/03/31 05:13:14;;;;;;;4.33;2.80;;;10.70;99.90;;;;;;6260589;22;20245;-85
2023/03/31 05:15:40;;;;;;;6.43;2.67;;;10.70;99.90;;;;;;6272069;22;20188;-85
2023/03/31 05:18:07;;;;;;;5.40;2.70;;;10.70;99.90;;;;;;6286571;22;20202;-86
2023/03/31 05:20:32;;;;;;;4.57;2.92;;;10.60;99.90;;;;;;6254335;22;20567;-85
2023/03/31 05:22:58;;;;;;;7.00;2.60;;;10.60;99.90;;;;;;6273969;22;20167;-87
2023/03/31 05:25:24;;;;;;;6.67;2.90;;;10.50;99.90;;;;;;6274636;22;20176;-86
2023/03/31 05:27:50;;;;;;;6.43;3.20;;;10.40;99.90;;;;;;6248203;22;20485;-85
2023/03/31 05:30:16;;;;;;;7.67;2.33;;;10.40;99.90;;;;;;6277797;22;20132;-88
2023/03/31 05:32:42;;;;;;;13.05;5.55;;;10.30;99.90;;;;;;6275562;22;20134;-86
2023/03/31 05:35:08;;;;;;;6.03;3.60;;;10.30;99.90;;;;;;6247698;22;20254;-87
2023/03/31 05:37:34;;;;;;;6.18;3.00;;;10.20;99.90;;;;;;6245538;22;20641;-86
2023/03/31 05:40:00;;;;;;;8.13;4.07;;;10.10;99.90;;;;;;6249089;22;20148;-87
2023/03/31 05:42:26;;;;;;;7.55;2.88;;;10.10;99.90;;;;;;6274750;22;20201;-87
2023/03/31 05:44:51;;;;;;;7.43;3.93;;;10.10;99.90;;;;;;6273396;22;20221;-87
2023/03/31 05:47:17;;;;;;;11.10;4.07;;;8.80;99.90;;;;;;6248226;22;20171;-87
2023/03/31 05:49:43;;;;;;;7.60;3.33;;;10.00;99.90;;;;;;6273314;22;20156;-87
2023/03/31 05:52:10;;;;;;;18.40;4.40;;;10.00;99.90;;;;;;6248394;22;20384;-87
2023/03/31 05:54:35;;;;;;;11.55;4.25;;;9.90;99.90;;;;;;6278850;22;20188;-88
2023/03/31 05:57:04;;;;;;;11.70;5.23;;;11.80;99.90;;;;;;6296390;22;20143;-87
2023/03/31 05:59:30;;;;;;;9.73;3.65;;;9.80;99.90;;;;;;6288786;22;20586;-87
2023/03/31 06:01:57;;;;;;;4.00;2.37;;;;;;;;;;6245105;22;20144;-86
2023/03/31 06:04:23;;;;;;;8.43;3.97;;;;;;;;;;6272427;22;20425;-86
2023/03/31 06:06:49;;;;;;;3.60;3.08;;;9.80;99.90;;;;;;6275355;22;20152;-86
2023/03/31 06:09:15;;;;;;;6.83;3.60;;;9.60;99.90;;;;;;6273807;22;20318;-87
2023/03/31 06:11:40;;;;;;;3.10;2.70;;;9.70;99.90;;;;;;6249954;22;20471;-86
2023/03/31 06:14:06;;;;;;;6.73;3.37;;;;;;;;;;6277076;22;20429;-86
2023/03/31 06:16:32;;;;;;;13.07;4.40;;;;;;;;;;6274762;22;20152;-87
2023/03/31 06:18:58;;;;;;;15.00;4.70;;;9.70;99.90;;;;;;6277311;22;20363;-87
2023/03/31 06:21:24;;;;;;;5.90;3.67;;;;;;;;;;6277753;22;20367;-86
2023/03/31 06:23:53;;;;;;;10.00;4.32;;;9.70;99.90;;;;;;6249628;22;20716;-85
2023/03/31 06:26:19;;;;;;;11.23;4.28;;;9.70;99.90;;;;;;6277165;22;20140;-87
2023/03/31 06:28:45;;;;;;;9.57;3.60;;;9.80;99.90;;;;;;6279012;22;20161;-87
2023/03/31 06:31:15;;;;;;;11.18;4.93;;;9.80;99.90;;;;;;6276442;22;20167;-86
2023/03/31 06:33:42;;;;;;;9.02;4.05;;;9.70;99.90;;;;;;6277539;22;20163;-86
2023/03/31 06:36:09;;;;;;;7.78;4.50;;;9.70;99.90;;;;;;6250258;22;20159;-86
2023/03/31 06:38:39;;;;;;;13.05;4.60;;;9.70;99.90;;;;;;6274380;22;20152;-87
2023/03/31 06:41:06;;;;;;;9.68;4.40;;;9.70;99.90;;;;;;6277853;22;20188;-86
2023/03/31 06:43:31;;;;;;;5.28;3.72;;;9.60;99.90;;;;;;6276547;22;20183;-86
2023/03/31 06:45:58;;;;;;;7.70;4.40;;;;;;;;;;6275775;22;20162;-86
2023/03/31 06:48:24;;;;;;;11.43;4.90;;;9.60;99.90;;;;;;6279237;22;20481;-86
2023/03/31 06:50:51;;;;;;;8.18;4.30;;;9.80;99.90;;;;;;6279822;22;20165;-86
2023/03/31 06:53:17;;;;;;;7.90;2.88;;;9.70;99.90;;;;;;6278347;22;20448;-87
2023/03/31 06:55:43;;;;;;;9.57;2.83;;;;;;;;;;6278931;22;20239;-86
2023/03/31 06:58:09;;;;;;;9.50;3.88;;;9.70;99.90;;;;;;6277421;22;20151;-87
2023/03/31 07:00:34;;;;;;;6.37;3.73;;;9.70;99.90;;;;;;6251394;22;20163;-87
2023/03/31 07:03:00;;;;;;;7.10;4.20;;;9.70;99.90;;;;;;6280347;22;20140;-85
2023/03/31 07:05:27;;;;;;;17.20;5.30;;;9.60;99.90;;;;;;6257648;22;20194;-86
2023/03/31 07:07:58;;;;;;;6.70;3.20;;;9.70;99.90;;;;;;6291738;22;20136;-86
2023/03/31 07:10:28;;;;;;;5.97;3.63;;;9.70;99.90;;;;;;6280770;22;20649;-87
2023/03/31 07:12:56;;;;;;;6.22;3.65;;;9.80;99.90;;;;;;6279663;22;20144;-87
2023/03/31 07:15:23;;;;;;;5.57;2.88;;;9.70;99.90;;;;;;6249892;22;20256;-86
2023/03/31 07:17:52;;;;;;;5.85;3.17;;;9.80;99.90;;;;;;6252116;22;20187;-86
2023/03/31 07:20:18;;;;;;;6.70;4.05;;;9.80;99.90;;;;;;6292030;22;20157;-86
2023/03/31 07:22:45;;;;;;;9.05;4.65;;;10.00;99.90;;;;;;6282988;22;20158;-85
2023/03/31 07:25:13;;;;;;;12.57;3.55;;;10.00;99.90;;;;;;6254181;22;20213;-87
2023/03/31 07:27:39;;;;;;;4.35;2.80;;;10.00;99.90;;;;;;6288835;22;20124;-87
2023/03/31 07:30:13;;;;;;;5.47;2.80;;;10.10;99.90;;;;;;6296983;22;20467;-85
2023/03/31 07:32:40;;;;;;;7.38;3.95;;;10.30;99.90;;;;;;6250686;22;20381;-85
2023/03/31 07:35:10;;;;;;;6.93;3.65;;;10.40;99.90;;;;;;6248883;22;20574;-86
2023/03/31 07:37:37;;;;;;;5.65;3.13;;;10.60;99.90;;;;;;6277418;22;20163;-87
2023/03/31 07:40:04;;;;;;;8.80;4.03;;;10.90;99.90;;;;;;6252513;22;20226;-84
2023/03/31 07:42:30;;;;;;;7.18;3.40;;;;;;;;;;6294640;22;20125;-86
2023/03/31 07:44:56;;;;;;;6.70;2.78;;;12.40;99.90;;;;;;6291894;22;20192;-88
2023/03/31 07:47:23;;;;;;;6.70;3.73;;;13.20;99.90;;;;;;6286725;22;20298;-86
2023/03/31 07:49:49;;;;;;;6.50;3.40;;;14.30;99.90;;;;;;6253047;22;20843;-85
2023/03/31 07:52:15;;;;;;;6.60;2.90;;;15.10;99.90;;;;;;6280379;22;20394;-87
2023/03/31 07:54:41;;;;;;;4.90;2.17;;;15.80;99.90;;;;;;6278854;22;21222;-86
2023/03/31 07:57:07;;;;;;;4.47;3.27;;;;;;;;;;6277184;22;20438;-87
2023/03/31 07:59:33;;;;;;;7.60;2.83;;;;;;;;;;6274674;22;20197;-87
2023/03/31 08:01:59;;;;;;;7.20;2.97;;;;;;;;;;6275135;22;20374;-87
2023/03/31 08:04:25;;;;;;;5.50;3.00;;;;;;;;;;6276883;22;20421;-87
2023/03/31 08:06:51;;;;;;;3.50;2.70;;;14.10;99.90;;;;;;6277172;22;20370;-87
2023/03/31 08:09:18;;;;;;;6.57;3.27;;;;;;;;;;6274794;22;20426;-87
2023/03/31 08:11:44;;;;;;;4.10;2.33;;;;;;;;;;6276193;22;20143;-86
2023/03/31 08:14:12;;;;;;;3.50;1.93;;;15.40;99.90;;;;;;6275626;22;20386;-86
2023/03/31 08:16:38;;;;;;;4.57;1.93;;;;;;;;;;6248718;22;20386;-86
2023/03/31 08:19:04;;;;;;;6.23;2.73;;;;;;;;;;6269746;22;20844;-80
2023/03/31 08:21:30;;;;;;;5.37;1.77;;;;;;;;;;6202018;23;20381;-83
2023/03/31 08:23:56;;;;;;;3.70;2.30;;;;;;;;;;6176072;23;20428;-81
2023/03/31 08:26:25;;;;;;;3.50;1.93;;;16.40;99.90;;;;;;6200770;23;20877;-78
2023/03/31 08:28:51;;;;;;;4.83;1.47;;;15.70;99.90;;;;;;6175288;23;20368;-80
2023/03/31 08:31:19;;;;;;;3.17;2.03;;;15.90;99.90;;;;;;6207307;23;20410;-83
2023/03/31 08:33:45;;;;;;;3.70;1.83;;;16.00;99.90;;;;;;6231924;23;20160;-82
2023/03/31 08:36:12;;;;;;;4.10;1.80;;;16.50;99.90;;;;;;6233568;23;20429;-82
2023/03/31 08:38:40;;;;;;;4.10;1.37;;;17.10;99.90;;;;;;6203637;23;20379;-83
2023/03/31 08:41:32;;;;;;;5.57;1.93;;;17.50;99.90;;;;;;6205556;23;20408;-82
2023/03/31 08:44:02;;;;;;;5.80;1.70;;;17.60;99.90;;;;;;6233564;23;20407;-83
2023/03/31 08:46:32;;;;;;;4.27;1.67;;;18.90;99.90;;;;;;6206006;23;20438;-83
2023/03/31 08:48:59;;;;;;;5.50;1.27;;;19.50;99.90;;;;;;6206417;22;20705;-81
2023/03/31 08:51:35;;;;;;;2.73;1.50;;;19.50;99.90;;;;;;6206882;23;20411;-81
2023/03/31 08:54:15;;;;;;;6.67;1.97;;;20.30;99.90;;;;;;6206052;23;21377;-80
2023/03/31 08:56:44;;;;;;;3.43;1.57;;;19.00;99.90;;;;;;6207233;23;20383;-81
2023/03/31 08:59:30;;;;;;;6.13;1.80;;;19.00;99.90;;;;;;6208292;22;20393;-81
2023/03/31 09:02:19;;;;;;;3.13;1.33;;;17.40;99.90;;;;;;6234406;23;20367;-82
2023/03/31 09:05:29;;;;;;;2.30;1.10;;;16.50;99.90;;;;;;6227911;23;20439;-82
2023/03/31 09:08:24;;;;;;;4.50;1.87;;;16.80;99.90;;;;;;6205876;23;20443;-82
2023/03/31 09:11:06;;;;;;;5.37;1.37;;;16.40;99.90;;;;;;6205941;23;20396;-80
2023/03/31 09:13:41;;;;;;;5.33;1.70;;;16.20;99.90;;;;;;6207232;23;20867;-83
2023/03/31 09:16:31;;;;;;;14.43;2.50;;;16.50;99.90;;;;;;6205488;23;20838;-81
2023/03/31 09:19:00;;;;;;;5.40;1.97;;;16.80;99.90;;;;;;6207265;23;20375;-82
2023/03/31 09:21:50;;;;;;;6.40;1.77;;;18.00;99.90;;;;;;6246433;22;20465;-81
2023/03/31 09:24:28;;;;;;;5.80;1.60;;;18.70;99.90;;;;;;6252378;22;20968;-83
2023/03/31 09:27:00;;;;;;;5.53;1.50;;;19.30;99.90;;;;;;6237053;23;20418;-84
2023/03/31 09:29:36;;;;;;;2.40;1.40;;;17.90;99.90;;;;;;6239310;22;20414;-83
2023/03/31 09:32:16;;;;;;;6.63;2.30;;;16.50;99.90;;;;;;6236975;23;20378;-83
2023/03/31 09:34:45;;;;;;;4.50;1.07;;;16.60;99.90;;;;;;6234637;23;20498;-79
2023/03/31 09:37:11;;;;;;;8.20;1.70;;;16.60;99.90;;;;;;6236294;22;20862;-79
2023/03/31 09:39:38;;;;;;;4.20;1.60;;;16.50;99.90;;;;;;6234894;22;20403;-81
2023/03/31 09:42:04;;;;;;;2.80;1.27;;;16.40;99.90;;;;;;6237646;23;20888;-81
2023/03/31 09:44:45;;;;;;;8.50;1.37;;;16.40;99.90;;;;;;6238648;23;20423;-79
2023/03/31 09:47:37;;;;;;;10.47;1.50;;;16.30;99.90;;;;;;6236960;22;20378;-81
2023/03/31 09:50:06;;;;;;;5.53;1.43;;;16.70;99.90;;;;;;6239460;22;20859;-80
2023/03/31 09:52:35;;;;;;;11.83;1.30;;;17.20;99.90;;;;;;6240560;23;20375;-79
2023/03/31 09:55:21;;;;;;;3.50;1.40;;;16.80;99.90;;;;;;6241629;22;20399;-80
2023/03/31 09:57:46;;;;;;;7.47;1.60;;;16.00;99.90;;;;;;6240506;23;20376;-81
2023/03/31 10:00:18;;;;;;;3.13;1.70;;;16.00;99.90;;;;;;6239160;22;20423;-82
2023/03/31 10:02:54;;;;;;;15.57;1.93;;;15.80;99.90;;;;;;6235310;23;20195;-81
2023/03/31 10:05:31;;;;;;;2.00;1.00;;;14.80;99.90;;;;;;6233633;23;20429;-82
2023/03/31 10:08:15;;;;;;;5.80;1.53;;;13.90;99.90;;;;;;6236182;22;20892;-80
2023/03/31 10:10:56;;;;;;;3.33;1.53;;;13.80;99.90;;;;;;6235577;22;20519;-80
2023/03/31 10:13:28;;;;;;;5.27;1.90;;;13.40;99.90;;;;;;6237856;22;20435;-81
2023/03/31 10:16:09;;;;;;;6.03;1.70;;;13.20;99.90;;;;;;6233156;23;20470;-81
2023/03/31 10:18:37;;;;;;;2.70;1.33;;;13.30;99.90;;;;;;6236629;22;20352;-83
2023/03/31 10:21:05;;;;;;;8.50;1.90;;;13.50;99.90;;;;;;6239826;22;20418;-82
2023/03/31 10:23:33;;;;;;;2.83;1.33;;;13.70;99.90;;;;;;6240577;22;20464;-82
2023/03/31 10:26:00;;;;;;;2.57;1.20;;;14.10;99.90;;;;;;6239841;22;20477;-82
2023/03/31 10:28:29;;;;;;;9.23;1.97;;;13.80;99.90;;;;;;6269136;22;20905;-82
2023/03/31 10:31:00;;;;;;;8.53;1.63;;;14.00;99.90;;;;;;6243210;22;20394;-79
2023/03/31 10:33:28;;;;;;;8.00;1.53;;;13.90;99.90;;;;;;6238330;22;20377;-82
2023/03/31 10:35:58;;;;;;;5.53;2.40;;;14.10;99.90;;;;;;6271262;22;20370;-86
2023/03/31 10:38:30;;;;;;;6.93;1.90;;;13.80;99.90;;;;;;6239063;22;20409;-83
2023/03/31 10:40:58;;;;;;;5.67;2.07;;;13.70;99.90;;;;;;6270400;22;20522;-83
2023/03/31 10:43:27;;;;;;;5.33;1.50;;;13.80;99.90;;;;;;6268601;22;20461;-82
2023/03/31 10:45:56;;;;;;;4.47;1.40;;;13.60;99.90;;;;;;6241190;22;20383;-81
2023/03/31 10:48:26;;;;;;;4.50;1.33;;;13.90;99.90;;;;;;6257132;22;20436;-82
2023/03/31 10:50:52;;;;;;;6.57;2.00;;;14.60;99.90;;;;;;6274644;22;20391;-84
2023/03/31 10:53:18;;;;;;;5.50;1.50;;;14.20;99.90;;;;;;6270291;22;20374;-83
2023/03/31 10:56:03;;;;;;;4.27;1.50;;;14.50;99.90;;;;;;6277011;22;20373;-83
2023/03/31 10:58:35;;;;;;;3.93;1.10;;;14.70;99.90;;;;;;6271608;22;20435;-83
2023/03/31 11:01:06;;;;;;;7.93;2.80;;;15.10;99.90;;;;;;6242325;22;20406;-81
2023/03/31 11:03:44;;;;;;;6.93;1.73;;;15.50;99.90;;;;;;6240662;22;20371;-83
2023/03/31 11:06:21;;;;;;;6.13;2.17;;;15.50;99.90;;;;;;6268892;22;20385;-80
2023/03/31 11:09:07;;;;;;;4.43;1.87;;;15.50;99.90;;;;;;6237739;22;20395;-84
2023/03/31 11:12:01;;;;;;;2.50;1.57;;;15.20;99.90;;;;;;6177185;22;20997;-81
2023/03/31 11:14:41;;;;;;;2.70;1.13;;;15.50;99.90;;;;;;6235357;22;20389;-82
2023/03/31 11:17:20;;;;;;;8.43;1.50;;;14.20;99.90;;;;;;6235689;22;21131;-82
2023/03/31 11:20:08;;;;;;;2.78;0.73;;;11.70;99.90;;;;;;6237876;22;20768;-80
2023/03/31 11:22:42;;;;;;;0.73;0.65;;;10.70;99.90;;;;;;6269231;22;20837;-82
2023/03/31 11:25:22;;;;;;;3.45;0.82;;;10.30;99.90;;;;;;6236446;22;20194;-81
2023/03/31 11:28:26;;;;;;;1.60;1.30;;;10.60;99.90;;;;;;6241038;22;20144;-81
2023/03/31 11:31:03;;;;;;;3.53;0.50;;;10.80;99.90;;;;;;6194517;22;20218;-83
2023/03/31 11:33:46;;;;;;;0.50;0.50;;;11.00;99.90;;;;;;6273067;22;20132;-81
2023/03/31 11:36:21;;;;;;;2.65;0.50;;;11.00;99.90;;;;;;6273428;22;20748;-81
2023/03/31 11:39:02;;;;;;;1.75;0.60;;;11.00;99.90;;;;;;6243318;22;20202;-80
2023/03/31 11:41:42;;;;;;;4.95;0.63;;;11.10;99.90;;;;;;6273269;22;20135;-81
2023/03/31 11:44:14;;;;;;;2.05;0.75;;;11.30;99.90;;;;;;6274175;22;20927;-80
2023/03/31 11:47:05;;;;;;;3.28;0.80;;;11.70;99.90;;;;;;6253676;22;20913;-83
2023/03/31 11:49:37;;;;;;;4.90;1.63;;;11.70;99.90;;;;;;6276481;22;20197;-83
2023/03/31 11:52:15;;;;;;;7.97;0.80;;;11.80;99.90;;;;;;6247483;22;20143;-84
2023/03/31 11:54:55;;;;;;;3.40;0.70;;;11.60;99.90;;;;;;6271459;22;20128;-81
2023/03/31 11:57:35;;;;;;;2.67;0.70;;;12.00;99.90;;;;;;6274678;22;20191;-80
2023/03/31 12:00:21;;;;;;;0.82;0.75;;;12.50;99.90;;;;;;6273249;22;20175;-82
2023/03/31 12:02:53;;;;;;;0.88;0.47;;;12.90;99.90;;;;;;6249707;22;20155;-78
2023/03/31 12:05:21;;;;;;;0.70;0.60;;;12.90;99.90;;;;;;6280155;22;20203;-80
2023/03/31 12:07:56;;;;;;;5.50;0.90;;;13.20;99.90;;;;;;6245170;22;20390;-84
2023/03/31 12:10:32;;;;;;;1.67;0.40;;;13.20;99.90;;;;;;6245636;22;20461;-81
2023/03/31 12:13:20;;;;;;;3.33;0.90;;;12.90;99.90;;;;;;6277995;22;20362;-82
2023/03/31 12:16:00;;;;;;;2.38;0.93;;;13.10;99.90;;;;;;6282382;22;20147;-77
2023/03/31 12:18:30;;;;;;;1.30;0.60;;;13.20;99.90;;;;;;6272694;22;20120;-79
2023/03/31 12:20:59;;;;;;;3.23;1.20;;;14.30;99.90;;;;;;6273865;22;20219;-78
2023/03/31 12:23:34;;;;;;;4.53;1.95;;;13.40;99.90;;;;;;6274267;22;20409;-78
2023/03/31 12:26:25;;;;;;;2.83;1.63;;;13.70;99.90;;;;;;6298673;22;20119;-79
2023/03/31 12:28:57;;;;;;;1.70;0.77;;;14.50;99.90;;;;;;6271368;22;20770;-79
2023/03/31 12:31:24;;;;;;;8.63;1.13;;;14.90;99.90;;;;;;6271972;22;20399;-78
2023/03/31 12:34:01;;;;;;;9.60;2.30;;;14.70;99.90;;;;;;6294681;22;20367;-80
2023/03/31 12:36:46;;;;;;;3.50;1.03;;;14.00;99.90;;;;;;6287034;22;20377;-81
2023/03/31 12:39:44;;;;;;;3.80;0.70;;;13.60;99.90;;;;;;6288956;22;20345;-79
2023/03/31 12:42:58;;;;;;;2.73;0.70;;;14.10;99.90;;;;;;6187527;22;20379;-82
2023/03/31 12:45:38;;;;;;;3.20;0.70;;;13.90;99.90;;;;;;6189050;22;20430;-82
2023/03/31 12:48:37;;;;;;;2.63;1.00;;;13.80;99.90;;;;;;6279889;22;20365;-79
2023/03/31 12:51:40;;;;;;;4.72;1.05;;;13.50;99.90;;;;;;6252538;22;20795;-80
2023/03/31 12:54:33;;;;;;;5.70;1.00;;;13.30;99.90;;;;;;6242539;22;20155;-82
2023/03/31 12:56:59;;;;;;;7.90;0.97;;;13.40;99.90;;;;;;6247834;22;20391;-82
2023/03/31 12:59:31;;;;;;;3.00;1.27;;;13.20;99.90;;;;;;6268377;22;20417;-81
2023/03/31 13:02:08;;;;;;;4.50;1.30;;;13.30;99.90;;;;;;6267255;22;20140;-82
2023/03/31 13:04:35;;;;;;;6.80;1.17;;;13.50;99.90;;;;;;6238889;22;20875;-83
2023/03/31 13:07:02;;;;;;;4.90;1.10;;;13.40;99.90;;;;;;6268642;22;20398;-80
2023/03/31 13:09:42;;;;;;;3.43;1.10;;;13.40;99.90;;;;;;6242377;22;20416;-79
2023/03/31 13:12:14;;;;;;;4.80;0.83;;;14.30;99.90;;;;;;6233257;22;20461;-83
2023/03/31 13:14:43;;;;;;;4.40;0.83;;;14.70;99.90;;;;;;6243602;22;20378;-81
2023/03/31 13:17:21;;;;;;;2.20;0.70;;;14.50;99.90;;;;;;6256784;22;20379;-83
2023/03/31 13:19:47;;;;;;;2.73;1.00;;;14.00;99.90;;;;;;6241764;22;20420;-84
2023/03/31 13:22:33;;;;;;;4.13;1.10;;;14.10;99.90;;;;;;6239922;22;20885;-81